Chester, Vermont
Current Conditions -  °F | °C
As of 8:16 AM on Saturday 25 Oct 2014 (Local Time) from KVSF Reporting Station
Moderate Fog Moderate Fog  
Wind Chill: 33°   Ceiling: 200
Heat Index: 33°   Visibility: 0.25mi
Dew Point: 32°   Wind: 0mph
Humidity: 96%   Direction: NA
Pressure: 29.79"   Gusts: NA
Location:  43.26°N, 72.6°W
Report Text: KVSF 251216Z AUTO 00000KT 1/4SM FG VV002 01/00 A2979 RMK AO2 T00060000
Loading
Personal Weather Stations






























Interactive Weather Map New forecast layout! Learn more

10-Day Weather Forecast

Advertisements
Track Severe Weather on mobile